Time;durP1;ratioP1;P1;durP2;ratioP2;P2;SDS_P1;SDS_P2;PMS_P1;PMS_P2;Temp;Humidity;BMP_temperature;BMP_pressure;BME280_temperature;BME280_humidity;BME280_pressure;Samples;Min_cycle;Max_cycle;Signal;HPM_P1;HPM_P2
2022/04/25 00:00:00;;;;;;;12.10;6.13;;;10.10;76.70;;;;;;5093759;28;20104;-79
2022/04/25 00:02:26;;;;;;;12.10;6.00;;;10.20;77.10;;;;;;5059151;28;20433;-79
2022/04/25 00:04:52;;;;;;;9.60;5.77;;;10.10;77.20;;;;;;5058998;28;20076;-80
2022/04/25 00:07:17;;;;;;;11.90;6.63;;;10.10;76.40;;;;;;5093736;28;20447;-78
2022/04/25 00:09:44;;;;;;;11.03;5.43;;;10.00;77.10;;;;;;5075505;28;20020;-79
2022/04/25 00:12:10;;;;;;;12.77;5.70;;;10.00;77.20;;;;;;5075690;28;20404;-79
2022/04/25 00:14:36;;;;;;;11.13;5.97;;;10.00;77.20;;;;;;5075479;28;20464;-79
2022/04/25 00:17:02;;;;;;;15.67;6.77;;;10.00;77.50;;;;;;5075353;28;20119;-79
2022/04/25 00:19:27;;;;;;;9.70;5.70;;;9.90;77.10;;;;;;5075689;28;20020;-79
2022/04/25 00:21:53;;;;;;;13.17;6.00;;;9.90;77.10;;;;;;5093613;28;20486;-78
2022/04/25 00:24:19;;;;;;;8.90;5.77;;;9.90;77.00;;;;;;5075801;28;20028;-79
2022/04/25 00:26:45;;;;;;;12.97;6.13;;;9.80;77.00;;;;;;5093484;28;20032;-79
2022/04/25 00:29:11;;;;;;;13.20;6.07;;;9.80;77.20;;;;;;5075583;28;20032;-79
2022/04/25 00:31:38;;;;;;;13.73;6.17;;;9.80;77.50;;;;;;5058829;28;20028;-79
2022/04/25 00:34:03;;;;;;;12.77;6.10;;;9.80;77.30;;;;;;5092732;28;20032;-79
2022/04/25 00:36:29;;;;;;;10.80;5.70;;;9.70;77.30;;;;;;5058646;28;20403;-79
2022/04/25 00:38:55;;;;;;;11.10;4.83;;;9.70;77.20;;;;;;5075240;28;20025;-79
2022/04/25 00:41:20;;;;;;;13.23;5.63;;;9.60;77.30;;;;;;5075383;28;20027;-78
2022/04/25 00:43:46;;;;;;;10.37;5.60;;;9.70;77.60;;;;;;5093255;28;20085;-79
2022/04/25 00:46:22;;;;;;;9.67;5.83;;;9.70;77.50;;;;;;5093287;28;20467;-80
2022/04/25 00:48:48;;;;;;;11.30;6.13;;;9.70;78.40;;;;;;5093227;28;20036;-79
2022/04/25 00:51:15;;;;;;;11.20;6.37;;;9.60;78.60;;;;;;5093229;28;20027;-79
2022/04/25 00:53:42;;;;;;;12.87;6.90;;;9.60;78.90;;;;;;5093216;28;20048;-79
2022/04/25 00:56:09;;;;;;;12.67;6.73;;;9.60;80.00;;;;;;5075332;28;20028;-79
2022/04/25 00:58:35;;;;;;;11.63;6.50;;;9.50;79.90;;;;;;5093040;28;20473;-79
2022/04/25 01:01:01;;;;;;;11.10;5.87;;;9.60;79.60;;;;;;5075116;28;20031;-79
2022/04/25 01:03:28;;;;;;;16.30;6.90;;;9.60;79.80;;;;;;5075327;28;20028;-79
2022/04/25 01:05:53;;;;;;;11.27;6.83;;;9.60;79.90;;;;;;5075227;28;20484;-79
2022/04/25 01:08:19;;;;;;;16.00;5.83;;;9.60;79.50;;;;;;5093037;28;20035;-79
2022/04/25 01:10:45;;;;;;;12.10;6.43;;;9.60;79.30;;;;;;5093368;28;20031;-80
2022/04/25 01:13:14;;;;;;;10.70;6.23;;;9.60;79.20;;;;;;5058214;28;20024;-80
2022/04/25 01:15:40;;;;;;;12.23;6.37;;;9.60;79.60;;;;;;5093022;28;20024;-79
2022/04/25 01:18:06;;;;;;;21.37;6.90;;;9.50;79.70;;;;;;5092871;28;20120;-79
2022/04/25 01:20:32;;;;;;;12.50;6.43;;;9.50;79.90;;;;;;5074981;28;20024;-79
2022/04/25 01:28:34;;;;;;;12.90;6.60;;;9.40;80.40;;;;;;5093472;28;20047;-79
2022/04/25 01:31:00;;;;;;;13.60;7.23;;;9.40;80.60;;;;;;5075027;28;20471;-79
2022/04/25 01:33:26;;;;;;;11.77;6.43;;;9.40;80.30;;;;;;5092898;28;20048;-79
2022/04/25 01:35:51;;;;;;;12.20;6.50;;;9.40;80.40;;;;;;5092764;28;20035;-79
2022/04/25 01:38:17;;;;;;;10.87;6.20;;;9.30;80.00;;;;;;5092785;28;20016;-80
2022/04/25 01:40:43;;;;;;;12.30;6.60;;;9.20;80.30;;;;;;5092744;28;20107;-79
2022/04/25 01:43:08;;;;;;;13.10;6.30;;;9.20;80.90;;;;;;5074659;28;20025;-79
2022/04/25 01:45:34;;;;;;;13.13;7.30;;;9.20;80.60;;;;;;5060368;28;20035;-79
2022/04/25 01:47:59;;;;;;;13.37;7.70;;;9.30;80.50;;;;;;5078333;28;20032;-80
2022/04/25 01:50:25;;;;;;;13.50;7.20;;;9.20;81.00;;;;;;5061406;28;20039;-79
2022/04/25 01:52:51;;;;;;;16.20;7.03;;;9.10;81.20;;;;;;5096202;28;20024;-79
2022/04/25 01:55:16;;;;;;;13.30;6.67;;;9.10;81.50;;;;;;5096178;28;20032;-79
2022/04/25 01:57:43;;;;;;;12.70;6.97;;;9.10;81.20;;;;;;5096220;28;20536;-79
2022/04/25 02:00:09;;;;;;;13.07;6.63;;;9.00;81.20;;;;;;5096039;28;20081;-80
2022/04/25 02:02:35;;;;;;;13.80;6.83;;;9.00;81.40;;;;;;5061196;28;20162;-79
2022/04/25 02:05:02;;;;;;;12.17;6.70;;;8.90;82.00;;;;;;5096509;28;20031;-79
2022/04/25 02:07:27;;;;;;;12.23;7.27;;;8.90;81.90;;;;;;5077818;28;20031;-80
2022/04/25 02:09:53;;;;;;;15.50;7.53;;;8.90;81.90;;;;;;5078014;28;20032;-79
2022/04/25 02:12:20;;;;;;;13.80;7.30;;;8.90;81.90;;;;;;5078209;28;20108;-79
2022/04/25 02:14:46;;;;;;;12.57;6.70;;;8.80;81.90;;;;;;5077537;28;20400;-79
2022/04/25 02:17:13;;;;;;;14.47;7.23;;;8.90;82.40;;;;;;5077413;28;20020;-79
2022/04/25 02:19:39;;;;;;;11.60;6.73;;;8.80;82.10;;;;;;5095748;28;20023;-79
2022/04/25 02:22:09;;;;;;;14.10;7.27;;;8.80;82.60;;;;;;5077432;28;20052;-79
2022/04/25 02:24:36;;;;;;;14.17;7.40;;;8.70;82.40;;;;;;5077473;28;20043;-80
2022/04/25 02:27:03;;;;;;;13.73;6.87;;;8.70;82.60;;;;;;5095482;28;20436;-80
2022/04/25 02:29:30;;;;;;;12.77;6.97;;;8.70;82.40;;;;;;5077420;28;20028;-79
2022/04/25 02:31:56;;;;;;;11.87;7.30;;;8.60;82.80;;;;;;5095574;28;20542;-78
2022/04/25 02:34:22;;;;;;;16.70;7.47;;;8.60;82.60;;;;;;5077265;28;20102;-74
2022/04/25 02:36:48;;;;;;;16.40;8.93;;;8.60;83.00;;;;;;5060509;28;20115;-74
2022/04/25 02:39:13;;;;;;;12.63;7.07;;;8.60;83.10;;;;;;5060507;28;20031;-73
2022/04/25 02:41:39;;;;;;;13.83;7.17;;;8.60;83.70;;;;;;5077259;28;20024;-73
2022/04/25 02:44:04;;;;;;;14.43;7.30;;;8.60;83.60;;;;;;5060383;28;20027;-73
2022/04/25 02:46:31;;;;;;;12.43;7.03;;;8.60;83.60;;;;;;5060307;28;20028;-73
2022/04/25 02:48:56;;;;;;;13.43;7.57;;;8.30;83.40;;;;;;5077158;28;20051;-73
2022/04/25 02:51:23;;;;;;;13.57;7.20;;;8.40;83.30;;;;;;5060227;28;20028;-74
2022/04/25 02:53:49;;;;;;;15.10;7.70;;;8.40;83.40;;;;;;5095167;28;20105;-74
2022/04/25 02:56:14;;;;;;;13.10;6.50;;;8.30;83.30;;;;;;5076109;28;20488;-74
2022/04/25 02:58:40;;;;;;;13.73;7.07;;;8.50;83.70;;;;;;5060147;28;20031;-73
2022/04/25 03:01:07;;;;;;;13.03;6.77;;;8.20;83.60;;;;;;5060038;28;20024;-74
2022/04/25 03:03:34;;;;;;;13.70;6.47;;;8.20;83.60;;;;;;5076683;28;20460;-74
2022/04/25 03:06:02;;;;;;;16.63;8.20;;;8.20;83.80;;;;;;5094743;28;20061;-74
2022/04/25 03:08:28;;;;;;;13.17;6.97;;;8.10;83.80;;;;;;5076960;28;20046;-74
2022/04/25 03:10:54;;;;;;;12.23;7.30;;;8.00;84.30;;;;;;5076573;28;20484;-73
2022/04/25 03:13:21;;;;;;;12.93;6.67;;;8.00;84.40;;;;;;5059885;28;20028;-74
2022/04/25 03:15:47;;;;;;;13.83;8.40;;;8.00;84.60;;;;;;5094657;28;20081;-73
2022/04/25 03:18:15;;;;;;;13.27;7.30;;;8.00;84.60;;;;;;5076228;28;20027;-73
2022/04/25 03:20:46;;;;;;;13.83;7.57;;;7.90;84.80;;;;;;5090147;28;20107;-74
2022/04/25 03:23:14;;;;;;;13.73;7.80;;;7.90;84.90;;;;;;5093350;28;20055;-74
2022/04/25 03:25:40;;;;;;;14.50;7.37;;;7.90;85.30;;;;;;5058413;28;20028;-75
2022/04/25 03:28:06;;;;;;;17.97;8.67;;;7.90;85.90;;;;;;5093437;28;20103;-75
2022/04/25 03:30:32;;;;;;;14.17;7.97;;;7.80;85.60;;;;;;5093999;28;20395;-74
2022/04/25 03:32:58;;;;;;;16.73;8.40;;;7.80;85.70;;;;;;5076273;28;20024;-74
2022/04/25 03:35:24;;;;;;;15.17;7.80;;;7.70;85.90;;;;;;5058582;28;20549;-74
2022/04/25 03:37:51;;;;;;;16.20;7.97;;;7.70;85.80;;;;;;5076179;28;20024;-74
2022/04/25 03:40:18;;;;;;;15.50;7.90;;;7.70;86.00;;;;;;5076054;28;20035;-75
2022/04/25 03:42:47;;;;;;;16.13;9.47;;;7.70;87.00;;;;;;5076110;28;20062;-74
2022/04/25 03:45:18;;;;;;;14.03;8.37;;;7.70;87.40;;;;;;5094003;28;20024;-74
2022/04/25 03:47:45;;;;;;;15.97;8.23;;;7.70;87.90;;;;;;5075918;28;20020;-74
2022/04/25 03:50:12;;;;;;;16.53;8.77;;;7.70;87.90;;;;;;5094186;28;20025;-75
2022/04/25 03:52:39;;;;;;;16.07;9.27;;;7.80;88.20;;;;;;5059121;28;20028;-74
2022/04/25 03:57:54;;;;;;;15.87;8.93;;;7.80;88.60;;;;;;5094111;28;20426;-75
2022/04/25 04:00:21;;;;;;;14.20;8.43;;;7.80;88.70;;;;;;5075735;28;20012;-74
2022/04/25 04:02:46;;;;;;;16.17;9.53;;;7.90;88.60;;;;;;5075646;28;20087;-74
2022/04/25 04:05:13;;;;;;;19.00;9.43;;;7.90;88.80;;;;;;5059134;28;20062;-75
2022/04/25 04:07:39;;;;;;;16.10;8.87;;;7.90;89.00;;;;;;5058037;28;20020;-75
2022/04/25 04:10:06;;;;;;;15.40;9.20;;;7.90;89.10;;;;;;5075300;28;20028;-74
2022/04/25 04:12:32;;;;;;;16.40;9.40;;;8.00;89.40;;;;;;5075669;28;20036;-75
2022/04/25 04:15:02;;;;;;;17.83;9.73;;;8.00;89.60;;;;;;5093590;28;20027;-74
2022/04/25 04:17:28;;;;;;;17.90;10.63;;;8.10;90.10;;;;;;5075307;28;20030;-75
2022/04/25 04:19:54;;;;;;;18.03;9.07;;;8.00;89.80;;;;;;5069997;28;20025;-75
2022/04/25 04:22:22;;;;;;;14.97;8.60;;;8.20;89.80;;;;;;5053150;28;20043;-76
2022/04/25 04:24:48;;;;;;;15.50;9.10;;;8.10;89.90;;;;;;5037676;28;20074;-74
2022/04/25 04:27:14;;;;;;;17.80;10.33;;;8.10;90.10;;;;;;5037262;28;20024;-74
2022/04/25 04:29:40;;;;;;;16.53;9.97;;;8.10;90.40;;;;;;5055294;28;20020;-74
2022/04/25 04:32:07;;;;;;;17.70;10.43;;;8.20;90.70;;;;;;5073331;28;20025;-75
2022/04/25 04:34:34;;;;;;;16.37;10.60;;;8.20;90.90;;;;;;5054360;28;20021;-75
2022/04/25 04:37:00;;;;;;;18.80;10.83;;;8.30;91.40;;;;;;5055111;28;20035;-74
2022/04/25 04:39:26;;;;;;;21.03;12.97;;;8.40;91.10;;;;;;5055101;28;20189;-75
2022/04/25 04:41:52;;;;;;;18.57;11.57;;;8.40;91.20;;;;;;5038538;28;20016;-75
2022/04/25 04:44:17;;;;;;;20.03;10.73;;;8.40;91.40;;;;;;5055109;28;20066;-74
2022/04/25 04:46:43;;;;;;;19.27;11.87;;;8.50;91.50;;;;;;5055182;28;20035;-74
2022/04/25 04:49:09;;;;;;;20.97;12.90;;;8.50;91.80;;;;;;5072978;28;20021;-75
2022/04/25 04:51:35;;;;;;;20.37;11.50;;;8.60;91.80;;;;;;5061689;28;20044;-75
2022/04/25 04:54:02;;;;;;;17.27;11.57;;;8.60;91.80;;;;;;5042522;28;20363;-74
2022/04/25 04:56:29;;;;;;;19.97;11.80;;;8.60;91.60;;;;;;5056262;28;20400;-75
2022/04/25 04:58:55;;;;;;;18.17;10.40;;;8.70;91.80;;;;;;5091002;28;20027;-75
2022/04/25 05:01:21;;;;;;;18.47;11.70;;;8.70;91.80;;;;;;5071820;28;20485;-75
2022/04/25 05:03:47;;;;;;;17.67;11.90;;;8.70;91.80;;;;;;5057897;28;20024;-74
2022/04/25 05:06:13;;;;;;;17.33;10.33;;;8.70;91.80;;;;;;5049496;28;20031;-75
2022/04/25 05:08:39;;;;;;;18.43;11.33;;;8.80;91.80;;;;;;5073010;28;20427;-74
2022/04/25 05:11:06;;;;;;;21.13;13.00;;;8.80;92.00;;;;;;5090744;28;20450;-74
2022/04/25 05:13:32;;;;;;;24.60;13.70;;;9.00;92.40;;;;;;5073357;28;20059;-74
2022/04/25 05:15:58;;;;;;;17.20;11.47;;;8.90;92.20;;;;;;5086165;28;20464;-74
2022/04/25 05:18:24;;;;;;;17.00;11.70;;;9.00;92.10;;;;;;5092032;28;20028;-75
2022/04/25 05:20:50;;;;;;;22.70;13.67;;;8.90;92.00;;;;;;5058548;28;20020;-74
2022/04/25 05:23:16;;;;;;;21.53;13.10;;;9.00;92.30;;;;;;5076863;28;20114;-74
2022/04/25 05:25:42;;;;;;;18.60;12.70;;;9.00;92.40;;;;;;5075741;28;20048;-79
2022/04/25 05:28:08;;;;;;;20.00;13.33;;;9.10;92.40;;;;;;5078054;28;20039;-79
2022/04/25 05:30:34;;;;;;;23.50;13.27;;;9.00;92.30;;;;;;5076628;28;20032;-80
2022/04/25 05:33:04;;;;;;;21.30;13.67;;;9.10;92.50;;;;;;5096016;28;20020;-79
2022/04/25 05:35:33;;;;;;;21.63;12.70;;;9.20;92.40;;;;;;5078574;28;20032;-80
2022/04/25 05:37:59;;;;;;;22.23;13.63;;;9.10;92.50;;;;;;5078383;28;20061;-80
2022/04/25 05:40:25;;;;;;;20.20;13.83;;;9.10;92.60;;;;;;5096693;28;20031;-79
2022/04/25 05:42:52;;;;;;;21.07;14.67;;;9.20;92.70;;;;;;5095976;28;20028;-79
2022/04/25 05:45:22;;;;;;;20.03;13.70;;;9.20;92.70;;;;;;5096282;28;20020;-79
2022/04/25 05:47:49;;;;;;;22.27;14.13;;;9.20;92.90;;;;;;5061568;28;20028;-79
2022/04/25 05:53:01;;;;;;;24.17;14.83;;;9.30;93.20;;;;;;5061088;28;20047;-79
2022/04/25 05:55:30;;;;;;;27.67;16.57;;;9.20;93.40;;;;;;5076002;28;20036;-79
2022/04/25 05:58:01;;;;;;;28.10;17.13;;;9.30;93.40;;;;;;5068615;28;20476;-80
2022/04/25 06:00:27;;;;;;;23.07;16.23;;;9.30;93.20;;;;;;5095898;28;20028;-80
2022/04/25 06:02:54;;;;;;;23.23;16.33;;;9.30;93.30;;;;;;5058629;28;20380;-79
2022/04/25 06:05:20;;;;;;;28.07;17.37;;;9.30;93.40;;;;;;5078099;28;20483;-74
2022/04/25 06:07:48;;;;;;;28.87;18.43;;;9.40;93.30;;;;;;5077829;28;20237;-75
2022/04/25 06:10:16;;;;;;;25.30;16.77;;;9.40;93.50;;;;;;5096025;28;20020;-74
2022/04/25 06:12:44;;;;;;;27.57;18.00;;;9.40;93.50;;;;;;5077312;28;20068;-74
2022/04/25 06:15:10;;;;;;;25.13;17.90;;;9.50;93.60;;;;;;5077899;28;20096;-74
2022/04/25 06:17:37;;;;;;;27.60;18.57;;;9.50;93.60;;;;;;5077502;28;20153;-74
2022/04/25 06:20:05;;;;;;;26.40;16.90;;;9.50;93.60;;;;;;5077590;28;20027;-75
2022/04/25 06:22:31;;;;;;;25.63;16.07;;;9.60;93.60;;;;;;5060549;28;20036;-74
2022/04/25 06:24:56;;;;;;;28.70;17.47;;;9.60;93.50;;;;;;5060445;28;20027;-75
2022/04/25 06:27:23;;;;;;;33.83;17.27;;;9.60;93.50;;;;;;5044140;28;20476;-76
2022/04/25 06:29:49;;;;;;;35.90;18.03;;;9.70;93.50;;;;;;5060880;28;20020;-76
2022/04/25 06:32:14;;;;;;;24.77;16.20;;;9.70;93.40;;;;;;5043156;28;20077;-74
2022/04/25 06:34:41;;;;;;;29.43;18.30;;;9.80;93.50;;;;;;5060583;28;20016;-74
2022/04/25 06:37:08;;;;;;;26.70;17.50;;;9.80;93.60;;;;;;5060602;28;20058;-74
2022/04/25 06:39:33;;;;;;;32.57;18.53;;;9.80;93.70;;;;;;5077095;28;20016;-74
2022/04/25 06:42:00;;;;;;;26.83;18.00;;;9.80;93.60;;;;;;5060862;28;20032;-75
2022/04/25 06:44:27;;;;;;;26.77;16.80;;;9.80;93.60;;;;;;5077247;28;20107;-75
2022/04/25 06:46:52;;;;;;;29.13;17.27;;;9.90;93.60;;;;;;5060338;28;20028;-75
2022/04/25 06:49:21;;;;;;;27.50;18.07;;;9.90;93.70;;;;;;5077013;28;20491;-74
2022/04/25 06:51:47;;;;;;;28.30;16.53;;;9.90;94.00;;;;;;5044550;28;20028;-75
2022/04/25 06:54:13;;;;;;;30.00;18.70;;;9.90;93.70;;;;;;5076956;28;20074;-75
2022/04/25 06:56:40;;;;;;;25.50;16.70;;;10.00;93.80;;;;;;5076579;28;20024;-74
2022/04/25 06:59:06;;;;;;;29.33;17.53;;;10.00;94.00;;;;;;5060313;28;20024;-75
2022/04/25 07:01:32;;;;;;;25.87;16.57;;;9.90;94.10;;;;;;5043644;28;20080;-74
2022/04/25 07:03:59;;;;;;;32.77;15.97;;;10.10;94.20;;;;;;5076742;28;20024;-73
2022/04/25 07:06:25;;;;;;;27.37;15.57;;;10.00;94.20;;;;;;5060018;28;20051;-74
2022/04/25 07:08:52;;;;;;;22.53;15.40;;;10.10;94.40;;;;;;5059448;28;20107;-73
2022/04/25 07:11:18;;;;;;;26.00;15.67;;;10.10;94.40;;;;;;5064598;28;20020;-74
2022/04/25 07:13:45;;;;;;;26.07;17.00;;;10.10;94.60;;;;;;5066102;28;20361;-75
2022/04/25 07:16:12;;;;;;;25.73;16.83;;;10.10;94.70;;;;;;5083018;28;20020;-75
2022/04/25 07:18:38;;;;;;;24.80;17.13;;;10.10;94.60;;;;;;5059445;28;20035;-81
2022/04/25 07:29:19;;;;;;;23.00;15.77;;;10.10;95.10;;;;;;5075853;28;20606;-73
2022/04/25 07:31:44;;;;;;;25.13;16.53;;;10.10;95.10;;;;;;5075882;28;20032;-74
2022/04/25 07:34:10;;;;;;;26.17;17.57;;;10.00;95.20;;;;;;5055927;28;20016;-74
2022/04/25 07:36:38;;;;;;;22.93;17.63;;;10.10;95.40;;;;;;5084624;28;20464;-74
2022/04/25 07:39:04;;;;;;;24.23;18.00;;;10.00;95.40;;;;;;5075656;28;20022;-74
2022/04/25 07:41:30;;;;;;;26.00;17.20;;;9.90;95.40;;;;;;5059308;28;20463;-74
2022/04/25 07:43:56;;;;;;;25.40;17.40;;;9.90;95.60;;;;;;5093859;28;20019;-74
2022/04/25 07:46:26;;;;;;;24.63;17.13;;;9.90;95.60;;;;;;5094433;28;20084;-81
2022/04/25 07:48:52;;;;;;;24.77;16.30;;;10.00;95.50;;;;;;5094371;28;20032;-81
2022/04/25 07:51:18;;;;;;;25.97;16.90;;;9.90;95.30;;;;;;5094657;28;20076;-82
2022/04/25 07:53:44;;;;;;;25.27;17.50;;;9.90;95.20;;;;;;5079419;28;20028;-82
2022/04/25 07:56:10;;;;;;;28.63;18.27;;;9.90;95.20;;;;;;5075423;28;20031;-82
2022/04/25 07:58:36;;;;;;;25.03;16.77;;;9.90;95.40;;;;;;5075770;28;20047;-81
2022/04/25 08:01:03;;;;;;;25.43;18.13;;;9.80;95.30;;;;;;5093841;28;20079;-81
2022/04/25 08:03:29;;;;;;;28.57;17.67;;;9.90;95.20;;;;;;5075731;28;20047;-81
2022/04/25 08:05:55;;;;;;;24.43;16.00;;;9.90;95.20;;;;;;5094058;28;20024;-83
2022/04/25 08:08:20;;;;;;;25.37;16.27;;;9.90;95.30;;;;;;5058945;28;20032;-82
2022/04/25 08:10:46;;;;;;;26.37;16.47;;;9.90;95.30;;;;;;5075766;28;20035;-82
2022/04/25 08:18:41;;;;;;;27.23;17.33;;;9.90;95.50;;;;;;5093482;28;20393;-83
2022/04/25 08:21:06;;;;;;;24.87;16.97;;;9.90;95.40;;;;;;5075309;28;20028;-82
2022/04/25 08:23:32;;;;;;;27.30;17.63;;;10.00;95.40;;;;;;5075497;28;20035;-82
2022/04/25 08:25:58;;;;;;;27.33;17.97;;;10.00;95.40;;;;;;5058751;28;20434;-83
2022/04/25 08:28:25;;;;;;;27.83;18.67;;;10.00;95.30;;;;;;5058719;28;20031;-81
2022/04/25 08:30:52;;;;;;;27.17;17.57;;;10.00;95.10;;;;;;5075285;28;20036;-83
2022/04/25 08:33:19;;;;;;;27.70;17.73;;;10.10;95.30;;;;;;5093221;28;20043;-83
2022/04/25 08:35:45;;;;;;;33.27;21.03;;;10.10;95.10;;;;;;5093460;28;20028;-82
2022/04/25 08:38:11;;;;;;;28.93;19.63;;;10.10;95.20;;;;;;5093575;28;20174;-83
2022/04/25 08:40:42;;;;;;;28.73;18.80;;;10.10;95.10;;;;;;5075334;28;20028;-84
2022/04/25 08:43:09;;;;;;;28.83;17.73;;;10.10;95.20;;;;;;5054974;28;20023;-82
2022/04/25 08:45:36;;;;;;;33.50;20.40;;;10.10;95.10;;;;;;5092500;28;20040;-83
2022/04/25 08:48:03;;;;;;;29.83;20.80;;;10.10;95.20;;;;;;5075745;28;20019;-82
2022/04/25 08:50:30;;;;;;;36.50;19.97;;;10.10;95.20;;;;;;5074891;28;20031;-82
2022/04/25 08:52:57;;;;;;;29.43;18.57;;;10.20;95.40;;;;;;5075072;28;20400;-82
2022/04/25 08:55:26;;;;;;;28.97;19.00;;;10.10;95.30;;;;;;5095548;28;20024;-82
2022/04/25 08:57:53;;;;;;;30.43;19.60;;;10.20;95.20;;;;;;5097201;28;20024;-81
2022/04/25 09:00:19;;;;;;;31.80;20.93;;;10.10;95.30;;;;;;5097301;28;20116;-81
2022/04/25 09:02:45;;;;;;;32.00;19.53;;;10.20;95.30;;;;;;5062561;28;20467;-82
2022/04/25 09:05:12;;;;;;;28.87;19.77;;;10.20;95.30;;;;;;5079032;28;20476;-81
2022/04/25 09:07:39;;;;;;;29.70;18.63;;;10.20;95.20;;;;;;5097061;28;20020;-81
2022/04/25 09:10:13;;;;;;;28.13;17.63;;;10.20;95.20;;;;;;5078965;28;20052;-82
2022/04/25 09:12:45;;;;;;;29.77;18.90;;;10.30;95.30;;;;;;5097044;28;20025;-81
2022/04/25 09:15:10;;;;;;;30.67;20.70;;;10.30;95.20;;;;;;5046609;28;20070;-81
2022/04/25 09:17:39;;;;;;;26.10;18.67;;;10.40;95.30;;;;;;5078865;28;20476;-81
2022/04/25 09:20:09;;;;;;;25.87;17.30;;;10.50;95.30;;;;;;5094587;28;20028;-81
2022/04/25 09:22:39;;;;;;;28.73;19.67;;;10.50;95.20;;;;;;5117122;28;20127;-80
2022/04/25 09:25:10;;;;;;;30.53;20.67;;;10.50;95.20;;;;;;5117315;28;20030;-80
2022/04/25 09:27:37;;;;;;;30.27;19.80;;;10.60;95.20;;;;;;5098764;28;20058;-81
2022/04/25 09:30:22;;;;;;;27.13;18.57;;;10.70;95.20;;;;;;5098786;28;20019;-81
2022/04/25 09:32:52;;;;;;;28.40;18.53;;;10.70;95.10;;;;;;5110443;28;20020;-81
2022/04/25 09:35:40;;;;;;;28.37;19.13;;;10.80;94.90;;;;;;5061571;28;20455;-82
2022/04/25 09:38:08;;;;;;;29.30;19.17;;;10.80;94.70;;;;;;5096571;28;20024;-81
2022/04/25 09:40:35;;;;;;;25.90;17.23;;;10.90;94.70;;;;;;5078237;28;20012;-83
2022/04/25 09:43:08;;;;;;;32.17;19.93;;;11.00;94.70;;;;;;5096351;28;20027;-82
2022/04/25 09:45:37;;;;;;;29.17;19.47;;;11.00;94.50;;;;;;5078696;28;20016;-81
2022/04/25 09:48:08;;;;;;;30.77;18.70;;;11.10;94.40;;;;;;5078308;28;20342;-82
2022/04/25 09:50:34;;;;;;;30.13;18.80;;;11.10;94.20;;;;;;5078211;28;20480;-81
2022/04/25 09:53:02;;;;;;;25.00;17.10;;;11.20;94.10;;;;;;5096439;28;20162;-81
2022/04/25 09:55:34;;;;;;;29.87;17.93;;;11.20;94.00;;;;;;5096484;28;20048;-81
2022/04/25 09:58:16;;;;;;;30.03;17.73;;;11.20;93.90;;;;;;5096202;28;20101;-76
2022/04/25 10:00:41;;;;;;;28.77;18.15;;;11.30;93.80;;;;;;5078806;28;20149;-76
2022/04/25 10:03:09;;;;;;;25.08;17.33;;;11.30;93.70;;;;;;5062039;28;20069;-76
2022/04/25 10:05:46;;;;;;;29.90;18.73;;;11.40;93.60;;;;;;5061360;28;20024;-76
2022/04/25 10:08:14;;;;;;;29.90;19.17;;;11.40;93.40;;;;;;5078066;28;20028;-76
2022/04/25 10:10:49;;;;;;;25.65;16.58;;;11.40;93.30;;;;;;5095923;28;20107;-76
2022/04/25 10:13:15;;;;;;;25.73;18.17;;;11.40;93.20;;;;;;5060972;28;20502;-75
2022/04/25 10:15:42;;;;;;;29.08;18.52;;;11.50;93.20;;;;;;5077892;28;20054;-76
2022/04/25 10:18:09;;;;;;;29.33;17.40;;;11.50;93.10;;;;;;5095274;28;20127;-75
2022/04/25 10:20:36;;;;;;;26.90;17.52;;;11.50;93.00;;;;;;5077638;28;20028;-76
2022/04/25 10:23:09;;;;;;;23.98;16.90;;;11.50;92.90;;;;;;5055669;28;20120;-76
2022/04/25 10:25:36;;;;;;;27.50;17.93;;;11.50;92.80;;;;;;5054146;28;20504;-76
2022/04/25 10:28:06;;;;;;;28.63;17.42;;;11.50;92.60;;;;;;5054089;28;20029;-76
2022/04/25 10:30:36;;;;;;;29.30;18.92;;;11.60;92.60;;;;;;5054089;28;20032;-76
2022/04/25 10:33:21;;;;;;;26.53;18.50;;;11.60;92.60;;;;;;5021256;28;20033;-76
2022/04/25 10:35:52;;;;;;;24.40;16.55;;;11.60;92.40;;;;;;5053534;28;20116;-76
2022/04/25 10:39:08;;;;;;;25.93;16.87;;;11.70;92.30;;;;;;5053588;28;20032;-76
2022/04/25 10:44:18;;;;;;;25.15;17.15;;;11.70;92.20;;;;;;5055274;28;20151;-83
2022/04/25 10:47:03;;;;;;;25.08;17.23;;;11.70;92.00;;;;;;5055228;28;20110;-82
2022/04/25 10:49:35;;;;;;;;;;;11.70;91.90;;;;;;5054083;28;20078;-82
2022/04/25 10:52:03;;;;;;;25.83;15.52;;;11.60;91.80;;;;;;5053682;28;19954;-82
2022/04/25 10:54:49;;;;;;;25.40;17.47;;;11.60;91.70;;;;;;5053357;28;20033;-82
2022/04/25 10:57:16;;;;;;;26.97;16.93;;;11.50;91.70;;;;;;5034837;28;20029;-82
2022/04/25 10:59:43;;;;;;;28.80;16.77;;;11.40;91.60;;;;;;5034729;28;20032;-85
2022/04/25 11:02:25;;;;;;;23.67;16.10;;;11.40;91.60;;;;;;5034638;28;20032;-82
2022/04/25 11:05:10;;;;;;;19.63;14.17;;;11.40;91.60;;;;;;5033570;28;20101;-83
2022/04/25 11:07:37;;;;;;;20.27;14.30;;;11.40;91.60;;;;;;5033518;28;20033;-82
2022/04/25 11:10:04;;;;;;;26.13;17.33;;;11.50;91.60;;;;;;5017024;28;20033;-82
2022/04/25 11:12:58;;;;;;;23.33;14.82;;;11.50;91.60;;;;;;5034751;28;20028;-81
2022/04/25 11:15:46;;;;;;;27.10;14.68;;;11.50;91.50;;;;;;5034634;28;20036;-81
2022/04/25 11:18:38;;;;;;;23.85;14.13;;;11.60;91.50;;;;;;5041217;28;20028;-82
2022/04/25 11:21:16;;;;;;;22.60;12.90;;;11.70;91.40;;;;;;5058353;28;20017;-80
2022/04/25 11:23:44;;;;;;;23.33;14.45;;;11.70;91.30;;;;;;5094568;28;20028;-81
2022/04/25 11:26:25;;;;;;;20.25;13.15;;;11.70;91.10;;;;;;5094542;28;20036;-82
2022/04/25 11:29:03;;;;;;;18.33;12.35;;;11.80;90.90;;;;;;5076150;28;20035;-81
2022/04/25 11:31:30;;;;;;;20.77;13.32;;;11.80;90.80;;;;;;5075848;28;20034;-80
2022/04/25 11:33:58;;;;;;;19.35;13.38;;;11.80;90.70;;;;;;5094292;28;20539;-82
2022/04/25 11:36:24;;;;;;;20.52;13.15;;;11.80;90.70;;;;;;5076383;28;20032;-82
2022/04/25 11:41:37;;;;;;;21.55;13.20;;;11.80;90.60;;;;;;5079269;28;20093;-81
2022/04/25 11:44:07;;;;;;;19.85;13.10;;;11.80;90.60;;;;;;5076282;28;20464;-81
2022/04/25 11:46:35;;;;;;;23.50;14.35;;;11.90;90.50;;;;;;5076062;28;20036;-82
2022/04/25 11:49:01;;;;;;;19.60;12.80;;;11.90;90.50;;;;;;5094235;28;20032;-81
2022/04/25 11:51:35;;;;;;;19.38;12.88;;;12.00;90.40;;;;;;5075868;28;20059;-81
2022/04/25 11:54:06;;;;;;;17.27;11.82;;;12.00;90.30;;;;;;5075987;28;20059;-74
2022/04/25 11:56:37;;;;;;;19.52;12.13;;;12.10;90.20;;;;;;5094180;28;20066;-74
2022/04/25 11:59:08;;;;;;;19.13;11.65;;;12.10;90.10;;;;;;5076505;28;20055;-75
2022/04/25 12:01:40;;;;;;;20.55;12.93;;;12.10;89.90;;;;;;5092615;28;20062;-74
2022/04/25 12:04:19;;;;;;;18.85;12.82;;;12.10;89.60;;;;;;5092611;28;20438;-75
2022/04/25 12:06:52;;;;;;;20.10;13.45;;;12.10;89.30;;;;;;5094129;28;20028;-74
2022/04/25 12:17:52;;;;;;;18.58;12.50;;;12.00;89.00;;;;;;5079045;28;20043;-74
2022/04/25 12:20:29;;;;;;;20.88;12.98;;;11.90;89.30;;;;;;5093926;28;20024;-75
2022/04/25 12:22:57;;;;;;;24.35;13.38;;;12.00;89.60;;;;;;5093782;28;20048;-75
2022/04/25 12:25:26;;;;;;;18.73;13.18;;;12.00;89.90;;;;;;5058850;28;20057;-75
2022/04/25 12:28:14;;;;;;;21.23;12.88;;;12.10;90.00;;;;;;5075357;28;20020;-75
2022/04/25 12:30:57;;;;;;;19.08;13.10;;;12.20;89.50;;;;;;5074673;28;20031;-75
2022/04/25 12:33:32;;;;;;;19.85;12.77;;;12.30;89.40;;;;;;5093516;28;20035;-73
2022/04/25 12:36:23;;;;;;;17.95;12.15;;;12.30;89.40;;;;;;5093903;28;20036;-73
2022/04/25 12:39:01;;;;;;;22.17;12.77;;;12.40;88.70;;;;;;5093441;28;20548;-74
2022/04/25 12:41:38;;;;;;;18.90;12.52;;;12.50;88.60;;;;;;5093342;28;20016;-74
2022/04/25 12:44:10;;;;;;;21.25;12.07;;;12.50;88.50;;;;;;5093514;28;20031;-74
2022/04/25 12:46:45;;;;;;;20.20;11.93;;;12.60;88.40;;;;;;5075393;28;20035;-73
2022/04/25 12:49:16;;;;;;;18.95;11.52;;;12.60;88.30;;;;;;5075630;28;20027;-73
2022/04/25 12:51:51;;;;;;;21.48;11.25;;;12.60;88.10;;;;;;5093144;28;20107;-74
2022/04/25 12:54:46;;;;;;;19.20;12.30;;;12.60;87.80;;;;;;5093253;28;20407;-73
2022/04/25 12:57:15;;;;;;;23.98;12.55;;;12.50;87.70;;;;;;5093078;28;20070;-74
2022/04/25 12:59:42;;;;;;;23.40;13.18;;;12.50;87.60;;;;;;5093428;28;20111;-73
2022/04/25 13:02:14;;;;;;;21.20;12.10;;;12.50;88.40;;;;;;5093393;28;20375;-73
2022/04/25 13:04:52;;;;;;;16.83;10.95;;;12.40;87.70;;;;;;5074645;28;20103;-74
2022/04/25 13:07:30;;;;;;;21.35;12.00;;;12.50;87.50;;;;;;5064733;28;20031;-73
2022/04/25 13:09:58;;;;;;;19.40;12.25;;;12.50;87.30;;;;;;5068718;28;20021;-74
2022/04/25 13:12:37;;;;;;;18.63;11.50;;;12.50;87.00;;;;;;5074096;28;20081;-74
2022/04/25 13:15:05;;;;;;;21.25;11.82;;;12.50;86.90;;;;;;5077309;28;20024;-74
2022/04/25 13:17:32;;;;;;;19.65;12.00;;;12.40;86.80;;;;;;5091732;28;20070;-73
2022/04/25 13:19:58;;;;;;;16.33;10.80;;;12.30;86.80;;;;;;5092951;28;20021;-74